createdAt,value
2022-09-03T00:00:03.649Z,65.79
2022-09-03T00:02:41.218Z,65.73
2022-09-03T00:05:16.861Z,65.33
2022-09-03T00:07:55.797Z,65.20
2022-09-03T00:10:34.589Z,64.17
2022-09-03T00:13:07.779Z,63.84
2022-09-03T00:15:39.608Z,63.96
2022-09-03T00:18:13.649Z,63.70
2022-09-03T00:20:47.445Z,63.67
2022-09-03T00:23:24.576Z,63.61
2022-09-03T00:26:01.800Z,64.14
2022-09-03T00:28:39.679Z,64.17
2022-09-03T00:31:18.510Z,64.25
2022-09-03T00:33:52.049Z,64.28
2022-09-03T00:36:27.921Z,64.46
2022-09-03T00:38:58.260Z,64.00
2022-09-03T00:41:40.407Z,63.92
2022-09-03T00:44:28.998Z,64.40
2022-09-03T00:47:09.519Z,64.25
2022-09-03T00:49:53.191Z,64.25
2022-09-03T00:52:40.616Z,64.25
2022-09-03T00:55:20.024Z,63.94
2022-09-03T00:58:06.305Z,63.95
2022-09-03T01:00:36.920Z,63.87
2022-09-03T01:03:12.224Z,64.74
2022-09-03T01:06:09.329Z,64.87
2022-09-03T01:09:02.698Z,65.24
2022-09-03T01:11:40.266Z,65.38
2022-09-03T01:14:23.707Z,65.08
2022-09-03T01:17:03.089Z,65.74
2022-09-03T01:19:57.249Z,65.68
2022-09-03T01:23:12.170Z,65.99
2022-09-03T01:25:55.052Z,65.85
2022-09-03T01:28:40.700Z,65.74
2022-09-03T01:31:21.708Z,66.57
2022-09-03T01:33:59.254Z,66.23
2022-09-03T01:36:37.267Z,66.54
2022-09-03T01:39:09.822Z,66.58
2022-09-03T01:42:03.837Z,66.61
2022-09-03T01:44:52.827Z,66.73
2022-09-03T01:47:38.256Z,66.73
2022-09-03T01:50:19.508Z,66.83
2022-09-03T01:52:57.811Z,66.74
2022-09-03T01:55:35.662Z,66.76
2022-09-03T01:58:14.232Z,66.66
2022-09-03T02:00:52.651Z,67.01
2022-09-03T02:03:23.662Z,66.97
2022-09-03T02:05:54.482Z,66.99
2022-09-03T02:08:25.413Z,67.49
2022-09-03T02:11:02.026Z,67.44
2022-09-03T02:13:35.416Z,66.78
2022-09-03T02:16:15.061Z,67.44
2022-09-03T02:18:49.781Z,67.26
2022-09-03T02:21:23.011Z,67.17
2022-09-03T02:23:54.120Z,67.37
2022-09-03T02:26:27.377Z,67.84
2022-09-03T02:28:58.821Z,68.32
2022-09-03T02:31:31.937Z,68.52
2022-09-03T02:34:02.915Z,68.58
2022-09-03T02:36:37.012Z,68.61
2022-09-03T02:39:09.946Z,68.38
2022-09-03T02:41:42.451Z,68.71
2022-09-03T02:44:20.168Z,68.42
2022-09-03T02:46:59.959Z,68.98
2022-09-03T02:49:30.453Z,68.49
2022-09-03T02:52:05.453Z,68.69
2022-09-03T02:54:39.820Z,68.86
2022-09-03T02:57:10.644Z,68.92
2022-09-03T02:59:41.793Z,68.66
2022-09-03T03:02:14.971Z,68.77
2022-09-03T03:04:45.217Z,69.35
2022-09-03T03:07:15.477Z,69.05
2022-09-03T03:09:45.908Z,68.87
2022-09-03T03:12:17.493Z,69.13
2022-09-03T03:14:47.670Z,69.13
2022-09-03T03:17:20.460Z,69.27
2022-09-03T03:19:50.601Z,69.37
2022-09-03T03:22:20.733Z,69.17
2022-09-03T03:24:51.319Z,69.09
2022-09-03T03:27:21.843Z,69.10
2022-09-03T03:29:52.441Z,68.42
2022-09-03T03:32:25.214Z,68.82
2022-09-03T03:34:55.462Z,68.12
2022-09-03T03:37:25.628Z,68.54
2022-09-03T03:39:55.909Z,68.38
2022-09-03T03:42:26.199Z,68.87
2022-09-03T03:44:56.357Z,68.73
2022-09-03T03:47:29.128Z,68.85
2022-09-03T03:49:59.272Z,69.09
2022-09-03T03:52:30.692Z,69.36
2022-09-03T03:55:02.030Z,69.42
2022-09-03T03:57:34.809Z,69.33
2022-09-03T04:00:05.381Z,69.26
2022-09-03T04:02:39.617Z,69.33
2022-09-03T04:05:10.615Z,69.62
2022-09-03T04:07:41.828Z,69.66
2022-09-03T04:10:13.062Z,69.48
2022-09-03T04:12:43.568Z,70.06
2022-09-03T04:15:14.386Z,69.84
2022-09-03T04:17:47.272Z,70.33
2022-09-03T04:20:17.636Z,70.57
2022-09-03T04:22:51.821Z,70.31
2022-09-03T04:25:22.169Z,70.74
2022-09-03T04:27:54.469Z,70.73
2022-09-03T04:30:24.841Z,71.00
2022-09-03T04:32:57.590Z,70.77
2022-09-03T04:35:33.860Z,71.14
2022-09-03T04:38:06.194Z,71.20
2022-09-03T04:40:36.974Z,71.63
2022-09-03T04:43:07.494Z,71.45
2022-09-03T04:45:37.743Z,71.55
2022-09-03T04:48:12.163Z,71.11
2022-09-03T04:50:42.355Z,71.15
2022-09-03T04:53:12.595Z,71.23
2022-09-03T04:55:43.711Z,71.15
2022-09-03T04:58:13.923Z,70.94
2022-09-03T05:00:44.195Z,70.58
2022-09-03T05:03:17.960Z,69.90
2022-09-03T05:05:55.590Z,69.63
2022-09-03T05:08:28.668Z,68.78
2022-09-03T05:11:03.001Z,68.31
2022-09-03T05:13:33.772Z,65.89
2022-09-03T05:16:04.652Z,64.84
2022-09-03T05:18:38.553Z,63.71
2022-09-03T05:21:10.722Z,63.28
2022-09-03T05:23:42.732Z,62.45
2022-09-03T05:26:17.367Z,61.14
2022-09-03T05:28:48.581Z,59.15
2022-09-03T05:31:21.661Z,57.11
2022-09-03T05:33:57.901Z,55.14
2022-09-03T05:36:29.884Z,53.76
2022-09-03T05:39:01.936Z,53.53
2022-09-03T05:41:33.708Z,52.84
2022-09-03T05:44:04.298Z,52.09
2022-09-03T05:46:37.141Z,51.06
2022-09-03T05:49:11.806Z,49.96
2022-09-03T05:51:42.782Z,49.94
2022-09-03T05:54:13.519Z,49.14
2022-09-03T05:56:44.010Z,48.04
2022-09-03T05:59:14.284Z,47.86
2022-09-03T06:01:50.955Z,46.32
2022-09-03T06:04:25.160Z,45.82
2022-09-03T06:06:55.308Z,45.32
2022-09-03T06:09:25.840Z,43.87
2022-09-03T06:11:57.499Z,42.76
2022-09-03T06:14:30.043Z,42.69
2022-09-03T06:17:00.414Z,43.25
2022-09-03T06:19:33.294Z,42.79
2022-09-03T06:22:03.551Z,40.94
2022-09-03T06:24:33.791Z,39.41
2022-09-03T06:27:04.726Z,38.93
2022-09-03T06:29:35.764Z,37.64
2022-09-03T06:32:06.819Z,36.59
2022-09-03T06:34:39.661Z,37.87
2022-09-03T06:37:09.952Z,36.12
2022-09-03T06:39:40.240Z,36.77
2022-09-03T06:42:11.059Z,35.88
2022-09-03T06:44:41.995Z,36.63
2022-09-03T06:47:12.192Z,37.39
2022-09-03T06:49:44.991Z,36.85
2022-09-03T06:52:15.208Z,36.85
2022-09-03T06:54:46.114Z,37.02
2022-09-03T06:57:16.623Z,36.66
2022-09-03T06:59:47.268Z,36.21
2022-09-03T07:02:19.623Z,36.42
2022-09-03T07:04:52.888Z,36.65
2022-09-03T07:07:24.486Z,34.50
2022-09-03T07:09:54.626Z,33.58
2022-09-03T07:12:25.378Z,34.90
2022-09-03T07:14:55.479Z,35.59
2022-09-03T07:17:25.738Z,34.57
2022-09-03T07:19:58.516Z,35.07
2022-09-03T07:22:31.306Z,33.67
2022-09-03T07:25:02.628Z,32.57
2022-09-03T07:27:33.202Z,31.77
2022-09-03T07:30:03.794Z,32.39
2022-09-03T07:32:34.083Z,32.30
2022-09-03T07:35:07.328Z,32.35
2022-09-03T07:37:38.640Z,32.29
2022-09-03T07:40:10.134Z,31.82
2022-09-03T07:42:41.216Z,32.11
2022-09-03T07:45:13.561Z,31.30
2022-09-03T07:47:50.799Z,31.15
2022-09-03T07:50:23.958Z,31.06
2022-09-03T07:53:00.179Z,31.96
2022-09-03T07:55:30.445Z,31.63
2022-09-03T07:58:00.839Z,31.56
2022-09-03T08:00:34.120Z,31.04
2022-09-03T08:03:08.496Z,30.96
2022-09-03T08:05:41.389Z,31.41
2022-09-03T08:08:15.522Z,31.98
2022-09-03T08:10:47.002Z,30.76
2022-09-03T08:13:19.963Z,31.23
2022-09-03T08:15:59.666Z,30.29
2022-09-03T08:18:37.911Z,29.58
2022-09-03T08:21:15.966Z,30.01
2022-09-03T08:23:48.496Z,30.19
2022-09-03T08:26:24.823Z,29.75
2022-09-03T08:28:56.194Z,29.82
2022-09-03T08:31:28.431Z,29.83
2022-09-03T08:34:00.630Z,29.86
2022-09-03T08:36:34.642Z,29.85
2022-09-03T08:39:10.266Z,30.39
2022-09-03T08:42:00.731Z,28.94
2022-09-03T08:44:33.663Z,29.69
2022-09-03T08:47:11.053Z,29.79
2022-09-03T08:49:48.727Z,29.54
2022-09-03T08:52:29.620Z,30.75
2022-09-03T08:55:06.088Z,29.41
2022-09-03T08:57:46.057Z,30.87
2022-09-03T09:00:17.140Z,30.71
2022-09-03T09:03:01.299Z,30.73
2022-09-03T09:05:44.342Z,30.83
2022-09-03T09:08:27.388Z,31.10
2022-09-03T09:11:06.397Z,31.39
2022-09-03T09:13:45.800Z,29.74
2022-09-03T09:16:22.172Z,30.74
2022-09-03T09:19:13.828Z,30.31
2022-09-03T09:21:49.129Z,30.78
2022-09-03T09:24:26.983Z,29.38
2022-09-03T09:27:01.530Z,29.53
2022-09-03T09:29:36.830Z,29.75
2022-09-03T09:32:13.291Z,30.28
2022-09-03T09:34:49.878Z,30.75
2022-09-03T09:37:22.275Z,29.80
2022-09-03T09:40:03.830Z,29.54
2022-09-03T09:42:39.468Z,31.01
2022-09-03T09:45:13.272Z,30.80
2022-09-03T09:47:44.441Z,30.35
2022-09-03T09:50:25.006Z,30.40
2022-09-03T09:53:04.389Z,30.03
2022-09-03T09:55:39.237Z,30.57
2022-09-03T09:58:14.520Z,30.20
2022-09-03T10:00:45.010Z,30.09
2022-09-03T10:03:15.520Z,29.60
2022-09-03T10:06:27.686Z,29.48
2022-09-03T10:09:09.933Z,30.41
2022-09-03T10:11:47.236Z,30.55
2022-09-03T10:14:26.222Z,29.65
2022-09-03T10:17:04.185Z,29.91
2022-09-03T10:19:43.525Z,30.25
2022-09-03T10:22:20.879Z,30.44
2022-09-03T10:25:00.977Z,30.00
2022-09-03T10:27:33.818Z,29.89
2022-09-03T10:30:04.099Z,29.77
2022-09-03T10:32:48.284Z,29.26
2022-09-03T10:35:28.393Z,28.62
2022-09-03T10:38:08.319Z,28.28
2022-09-03T10:40:43.607Z,28.25
2022-09-03T10:43:42.556Z,29.08
2022-09-03T10:46:23.436Z,29.58
2022-09-03T10:49:16.900Z,29.64
2022-09-03T10:51:57.370Z,28.64
2022-09-03T10:54:41.134Z,29.05
2022-09-03T10:57:22.027Z,30.11
2022-09-03T11:00:08.721Z,29.47
2022-09-03T11:03:02.310Z,28.16
2022-09-03T11:05:37.270Z,28.96
2022-09-03T11:08:13.502Z,27.63
2022-09-03T11:10:50.283Z,27.83
2022-09-03T11:13:25.466Z,27.93
2022-09-03T11:16:02.081Z,27.56
2022-09-03T11:18:38.744Z,27.23
2022-09-03T11:21:13.372Z,26.69
2022-09-03T11:24:09.632Z,27.45
2022-09-03T11:26:41.245Z,27.51
2022-09-03T11:29:19.284Z,26.71
2022-09-03T11:31:58.888Z,26.76
2022-09-03T11:34:37.235Z,27.92
2022-09-03T11:37:23.105Z,27.95
2022-09-03T11:39:59.966Z,27.26
2022-09-03T11:42:38.165Z,27.92
2022-09-03T11:45:26.605Z,29.16
2022-09-03T11:47:59.595Z,27.95
2022-09-03T11:50:32.152Z,27.69
2022-09-03T11:53:12.414Z,28.14
2022-09-03T11:55:59.403Z,27.40
2022-09-03T11:58:34.858Z,27.37
2022-09-03T12:01:10.516Z,27.36
2022-09-03T12:03:54.295Z,26.95
2022-09-03T12:06:40.503Z,25.56
2022-09-03T12:09:33.587Z,26.72
2022-09-03T12:12:17.259Z,26.99
2022-09-03T12:14:52.409Z,27.44
2022-09-03T12:17:32.683Z,27.49
2022-09-03T12:20:06.022Z,26.81
2022-09-03T12:22:41.536Z,26.23
2022-09-03T12:25:13.382Z,26.95
2022-09-03T12:27:47.076Z,26.71
2022-09-03T12:30:20.631Z,27.30
2022-09-03T12:32:51.533Z,27.68
2022-09-03T12:38:27.170Z,29.27
2022-09-03T12:43:55.040Z,29.15
2022-09-03T12:46:34.606Z,29.56
2022-09-03T12:52:09.052Z,31.89
2022-09-03T12:54:50.203Z,34.09
2022-09-03T12:57:25.657Z,34.29
2022-09-03T13:00:02.186Z,34.36
2022-09-03T13:02:40.264Z,34.44
2022-09-03T13:05:17.441Z,34.76
2022-09-03T13:07:55.890Z,34.77
2022-09-03T13:10:31.754Z,35.08
2022-09-03T13:13:03.979Z,34.82
2022-09-03T13:15:34.618Z,34.66
2022-09-03T13:18:27.790Z,35.02
2022-09-03T13:21:12.938Z,35.26
2022-09-03T13:24:12.280Z,34.62
2022-09-03T13:26:52.473Z,34.68
2022-09-03T13:29:39.790Z,35.63
2022-09-03T13:32:19.909Z,35.99
2022-09-03T13:34:56.551Z,36.45
2022-09-03T13:37:32.011Z,36.27
2022-09-03T13:40:17.472Z,36.53
2022-09-03T13:42:53.520Z,36.50
2022-09-03T13:45:32.938Z,36.45
2022-09-03T13:48:23.650Z,35.74
2022-09-03T13:51:02.276Z,35.42
2022-09-03T13:53:44.799Z,34.95
2022-09-03T13:56:29.211Z,33.81
2022-09-03T13:59:07.477Z,34.23
2022-09-03T14:02:05.336Z,33.46
2022-09-03T14:04:47.924Z,33.08
2022-09-03T14:07:26.269Z,33.59
2022-09-03T14:10:04.380Z,34.21
2022-09-03T14:12:46.960Z,34.09
2022-09-03T14:15:25.929Z,33.97
2022-09-03T14:18:03.035Z,34.23
2022-09-03T14:20:40.928Z,34.15
2022-09-03T14:23:25.730Z,34.38
2022-09-03T14:25:57.443Z,35.14
2022-09-03T14:28:38.369Z,35.08
2022-09-03T14:31:21.325Z,35.41
2022-09-03T14:34:03.700Z,35.01
2022-09-03T14:36:43.584Z,34.45
2022-09-03T14:39:32.827Z,34.43
2022-09-03T14:42:47.793Z,34.06
2022-09-03T14:46:05.911Z,34.01
2022-09-03T14:48:52.792Z,34.45
2022-09-03T14:51:38.361Z,34.68
2022-09-03T14:54:30.985Z,34.44
2022-09-03T14:57:12.905Z,34.70
2022-09-03T15:00:08.307Z,34.92
2022-09-03T15:02:55.812Z,35.31
2022-09-03T15:05:39.715Z,35.80
2022-09-03T15:08:15.922Z,36.23
2022-09-03T15:10:55.911Z,36.38
2022-09-03T15:13:30.246Z,36.51
2022-09-03T15:16:21.137Z,36.02
2022-09-03T15:19:09.409Z,36.81
2022-09-03T15:22:01.580Z,36.51
2022-09-03T15:24:41.291Z,36.82
2022-09-03T15:27:32.543Z,37.20
2022-09-03T15:30:10.047Z,37.10
2022-09-03T15:32:55.668Z,37.54
2022-09-03T15:35:48.707Z,37.27
2022-09-03T15:38:41.446Z,38.07
2022-09-03T15:41:20.851Z,38.05
2022-09-03T15:43:53.867Z,38.69
2022-09-03T15:46:41.432Z,38.36
2022-09-03T15:49:21.625Z,39.05
2022-09-03T15:52:17.426Z,38.98
2022-09-03T15:55:04.047Z,38.90
2022-09-03T15:57:42.518Z,38.89
2022-09-03T16:00:16.204Z,39.07
2022-09-03T16:02:59.320Z,39.55
2022-09-03T16:05:42.775Z,39.71
2022-09-03T16:08:22.521Z,40.08
2022-09-03T16:11:01.895Z,40.28
2022-09-03T16:13:43.596Z,40.13
2022-09-03T16:16:22.914Z,40.49
2022-09-03T16:19:03.544Z,40.57
2022-09-03T16:21:40.199Z,40.95
2022-09-03T16:24:20.408Z,41.00
2022-09-03T16:27:00.326Z,40.92
2022-09-03T16:29:32.822Z,41.51
2022-09-03T16:32:16.651Z,41.54
2022-09-03T16:34:51.974Z,41.87
2022-09-03T16:37:30.315Z,41.59
2022-09-03T16:40:15.922Z,42.26
2022-09-03T16:42:56.078Z,42.01
2022-09-03T16:45:34.503Z,42.63
2022-09-03T16:48:20.353Z,42.60
2022-09-03T16:51:09.880Z,42.69
2022-09-03T16:54:03.364Z,42.76
2022-09-03T16:56:51.262Z,42.95
2022-09-03T16:59:54.455Z,43.16
2022-09-03T17:02:48.129Z,43.56
2022-09-03T17:05:33.748Z,44.05
2022-09-03T17:08:16.026Z,44.34
2022-09-03T17:10:52.049Z,44.64
2022-09-03T17:13:49.278Z,44.80
2022-09-03T17:16:38.452Z,44.89
2022-09-03T17:19:14.197Z,45.39
2022-09-03T17:21:53.687Z,45.64
2022-09-03T17:24:37.920Z,45.59
2022-09-03T17:27:28.598Z,46.09
2022-09-03T17:30:09.358Z,45.92
2022-09-03T17:33:07.509Z,46.16
2022-09-03T17:35:44.120Z,45.96
2022-09-03T17:38:29.384Z,46.54
2022-09-03T17:41:11.177Z,46.48
2022-09-03T17:43:54.175Z,47.00
2022-09-03T17:46:35.755Z,46.75
2022-09-03T17:49:11.161Z,47.10
2022-09-03T17:51:48.244Z,47.53
2022-09-03T17:54:28.810Z,47.12
2022-09-03T17:57:09.009Z,47.37
2022-09-03T17:59:47.097Z,47.60
2022-09-03T18:02:32.026Z,47.44
2022-09-03T18:05:13.568Z,47.75
2022-09-03T18:07:50.932Z,47.55
2022-09-03T18:10:30.396Z,47.71
2022-09-03T18:13:09.753Z,47.87
2022-09-03T18:15:49.641Z,47.99
2022-09-03T18:18:29.031Z,47.62
2022-09-03T18:21:29.031Z,47.82
2022-09-03T18:24:19.791Z,48.12
2022-09-03T18:27:11.525Z,48.07
2022-09-03T18:30:01.217Z,48.06
2022-09-03T18:32:48.040Z,47.97
2022-09-03T18:35:31.350Z,48.02
2022-09-03T18:38:18.966Z,48.05
2022-09-03T18:41:08.697Z,48.66
2022-09-03T18:44:01.337Z,48.57
2022-09-03T18:50:07.266Z,48.70
2022-09-03T18:52:58.814Z,48.82
2022-09-03T18:55:57.035Z,48.85
2022-09-03T18:58:48.970Z,48.98
2022-09-03T19:01:43.067Z,49.17
2022-09-03T19:04:35.374Z,49.55
2022-09-03T19:07:23.922Z,49.40
2022-09-03T19:10:13.417Z,49.28
2022-09-03T19:13:15.223Z,49.80
2022-09-03T19:16:07.774Z,50.36
2022-09-03T19:19:24.147Z,50.69
2022-09-03T19:22:11.629Z,50.55
2022-09-03T19:24:54.267Z,50.86
2022-09-03T19:27:59.586Z,50.84
2022-09-03T19:30:50.828Z,50.89
2022-09-03T19:33:41.973Z,50.84
2022-09-03T19:36:31.497Z,50.13
2022-09-03T19:39:28.205Z,49.77
2022-09-03T19:42:19.275Z,50.38
2022-09-03T19:45:14.829Z,50.07
2022-09-03T19:48:13.738Z,50.53
2022-09-03T19:51:02.871Z,50.52
2022-09-03T19:53:47.711Z,51.01
2022-09-03T19:56:38.849Z,50.95
2022-09-03T19:59:27.803Z,50.79
2022-09-03T20:02:10.454Z,50.83
2022-09-03T20:05:01.996Z,50.63
2022-09-03T20:07:45.148Z,50.65
2022-09-03T20:10:22.555Z,50.68
2022-09-03T20:12:58.977Z,50.73
2022-09-03T20:15:45.729Z,51.26
2022-09-03T20:18:24.865Z,50.93
2022-09-03T20:21:09.911Z,50.53
2022-09-03T20:23:50.798Z,50.14
2022-09-03T20:26:30.867Z,50.59
2022-09-03T20:29:26.539Z,50.18
2022-09-03T20:32:05.885Z,49.89
2022-09-03T20:34:45.442Z,49.97
2022-09-03T20:37:29.033Z,50.07
2022-09-03T20:40:28.725Z,49.75
2022-09-03T20:43:43.612Z,49.79
2022-09-03T20:46:29.160Z,49.11
2022-09-03T20:49:07.987Z,49.14
2022-09-03T20:51:46.256Z,49.51
2022-09-03T20:54:28.721Z,49.73
2022-09-03T20:57:24.198Z,49.80
2022-09-03T21:00:07.330Z,49.72
2022-09-03T21:02:58.486Z,49.46
2022-09-03T21:05:32.656Z,49.08
2022-09-03T21:08:11.438Z,49.04
2022-09-03T21:10:51.015Z,48.92
2022-09-03T21:13:38.576Z,49.11
2022-09-03T21:16:23.036Z,48.95
2022-09-03T21:19:02.019Z,49.12
2022-09-03T21:21:43.240Z,49.31
2022-09-03T21:24:19.018Z,49.25
2022-09-03T21:26:57.259Z,48.76
2022-09-03T21:29:29.648Z,49.13
2022-09-03T21:32:05.506Z,49.12
2022-09-03T21:34:42.458Z,49.36
2022-09-03T21:37:15.706Z,49.15
2022-09-03T21:39:49.967Z,49.44
2022-09-03T21:42:30.033Z,48.78
2022-09-03T21:45:07.786Z,49.19
2022-09-03T21:47:44.854Z,49.13
2022-09-03T21:50:21.798Z,48.78
2022-09-03T21:52:57.232Z,48.78
2022-09-03T21:55:37.784Z,49.54
2022-09-03T21:58:27.450Z,49.15
2022-09-03T22:01:02.622Z,49.27
2022-09-03T22:03:34.114Z,49.50
2022-09-03T22:06:14.229Z,49.32
2022-09-03T22:08:53.982Z,49.73
2022-09-03T22:11:33.306Z,49.81
2022-09-03T22:14:12.922Z,49.48
2022-09-03T22:16:50.469Z,49.83
2022-09-03T22:19:21.109Z,50.59
2022-09-03T22:22:00.323Z,50.49
2022-09-03T22:24:43.086Z,50.46
2022-09-03T22:27:22.576Z,50.60
2022-09-03T22:30:06.017Z,50.51
2022-09-03T22:32:51.946Z,50.33
2022-09-03T22:35:48.475Z,50.36
2022-09-03T22:38:46.651Z,50.03
2022-09-03T22:41:37.616Z,50.68
2022-09-03T22:44:16.893Z,50.56
2022-09-03T22:47:02.277Z,50.39
2022-09-03T22:49:41.097Z,50.20
2022-09-03T22:52:31.998Z,50.14
2022-09-03T22:55:23.352Z,49.59
2022-09-03T22:58:04.688Z,49.96
2022-09-03T23:00:43.123Z,50.26
2022-09-03T23:03:22.742Z,50.47
2022-09-03T23:05:59.506Z,50.27
2022-09-03T23:08:37.668Z,50.99
2022-09-03T23:11:25.886Z,50.74
2022-09-03T23:14:02.132Z,50.46
2022-09-03T23:16:39.762Z,50.65
2022-09-03T23:21:57.048Z,50.08
2022-09-03T23:24:34.786Z,50.07
2022-09-03T23:27:10.487Z,50.41
2022-09-03T23:29:45.965Z,50.67
2022-09-03T23:32:18.469Z,50.83
2022-09-03T23:34:51.307Z,50.76
2022-09-03T23:37:42.153Z,51.22
2022-09-03T23:40:31.722Z,51.09
2022-09-03T23:43:50.466Z,51.43
2022-09-03T23:46:23.994Z,51.91
2022-09-03T23:49:12.043Z,52.21
2022-09-03T23:51:58.873Z,52.35
2022-09-03T23:54:40.655Z,51.97
2022-09-03T23:57:27.103Z,52.08
